Time;durP1;ratioP1;P1;durP2;ratioP2;P2;SDS_P1;SDS_P2;PMS_P1;PMS_P2;Temp;Humidity;BMP_temperature;BMP_pressure;BME280_temperature;BME280_humidity;BME280_pressure;Samples;Min_cycle;Max_cycle;Signal;HPM_P1;HPM_P2
2024/02/10 00:02:17;;;;;;;9.02;2.90;;;;;;;14.18;63.64;98509.72;4968697;28;114404;-81
2024/02/10 00:04:46;;;;;;;9.07;3.10;;;;;;;14.17;63.48;98511.56;4959249;28;114111;-81
2024/02/10 00:07:17;;;;;;;6.32;2.97;;;;;;;14.17;63.57;98516.88;4958003;28;124896;-80
2024/02/10 00:09:46;;;;;;;5.68;2.83;;;;;;;14.18;63.52;98510.59;4955310;28;124025;-81
2024/02/10 00:12:13;;;;;;;5.65;2.85;;;;;;;14.19;63.63;98508.75;4947689;28;112580;-81
2024/02/10 00:14:41;;;;;;;7.55;2.95;;;;;;;14.18;63.35;98510.59;4962089;28;114171;-81
2024/02/10 00:17:09;;;;;;;7.32;2.80;;;;;;;14.18;63.53;98505.28;4967709;28;125061;-80
2024/02/10 00:19:37;;;;;;;4.63;2.80;;;;;;;14.18;63.50;98494.63;4967629;28;123643;-81
2024/02/10 00:22:06;;;;;;;5.28;2.67;;;;;;;14.18;63.60;98505.28;4967988;28;115058;-81
2024/02/10 00:24:34;;;;;;;6.15;2.92;;;;;;;14.19;63.63;98517.56;4963978;28;115241;-80
2024/02/10 00:27:01;;;;;;;5.47;2.83;;;;;;;14.18;63.46;98510.59;4978240;28;124758;-81
2024/02/10 00:29:33;;;;;;;5.45;3.08;;;;;;;14.18;63.88;98510.59;4966783;28;123716;-81
2024/02/10 00:32:09;;;;;;;5.83;3.03;;;;;;;14.18;63.54;98510.59;4969035;28;114200;-80
2024/02/10 00:34:39;;;;;;;5.90;3.00;;;;;;;14.18;63.50;98510.59;4966404;28;114595;-81
2024/02/10 00:37:08;;;;;;;6.55;2.70;;;;;;;14.18;63.89;98521.25;4986200;28;123083;-81
2024/02/10 00:39:35;;;;;;;5.97;2.72;;;;;;;14.18;63.78;98513.25;4963668;28;123626;-81
2024/02/10 00:42:02;;;;;;;7.30;3.20;;;;;;;14.19;63.81;98514.91;4965138;28;114413;-81
2024/02/10 00:44:30;;;;;;;5.25;3.17;;;;;;;14.19;63.81;98509.59;4962260;28;112774;-81
2024/02/10 00:47:00;;;;;;;5.03;2.85;;;;;;;14.21;63.93;98510.28;4969765;28;123360;-81
2024/02/10 00:49:27;;;;;;;7.63;2.90;;;;;;;14.23;63.94;98511.97;4969249;28;122930;-81
2024/02/10 00:51:57;;;;;;;5.18;2.90;;;;;;;14.21;63.99;98510.28;4959164;28;113588;-81
2024/02/10 00:54:27;;;;;;;6.22;3.00;;;;;;;14.23;63.85;98511.97;4979951;28;112597;-81
2024/02/10 00:56:55;;;;;;;5.28;3.17;;;;;;;14.21;64.14;98510.28;4955058;28;123165;-80
2024/02/10 00:59:22;;;;;;;7.35;3.28;;;;;;;14.21;63.97;98515.59;4971934;28;124694;-81
2024/02/10 01:01:52;;;;;;;7.57;3.33;;;;;;;14.22;63.90;98511.09;4969096;28;113138;-81
2024/02/10 01:04:20;;;;;;;4.95;3.22;;;;;;;14.23;64.14;98517.28;4954301;28;114283;-81
2024/02/10 01:06:48;;;;;;;5.95;3.45;;;;;;;14.25;64.11;98515.31;4965686;28;123924;-81
2024/02/10 01:09:16;;;;;;;6.40;3.20;;;;;;;14.25;64.17;98515.31;4968382;28;124542;-81
2024/02/10 01:11:43;;;;;;;5.07;3.50;;;;;;;14.25;63.98;98515.31;4970856;28;114770;-81
2024/02/10 01:14:11;;;;;;;4.80;3.08;;;;;;;14.26;64.00;98511.66;4977672;28;114416;-81
2024/02/10 01:16:43;;;;;;;6.75;3.22;;;;;;;14.24;64.14;98514.47;4968162;28;123957;-82
2024/02/10 01:19:11;;;;;;;6.38;3.38;;;;;;;14.26;63.99;98519.63;4968612;28;123647;-81
2024/02/10 01:21:40;;;;;;;6.47;3.42;;;;;;;14.26;64.13;98516.97;4969971;28;115384;-81
2024/02/10 01:24:07;;;;;;;5.40;3.10;;;;;;;14.26;64.13;98516.97;4969465;28;113914;-83
2024/02/10 01:26:40;;;;;;;5.82;3.65;;;;;;;14.27;63.98;98518.66;4972603;28;124622;-82
2024/02/10 01:29:09;;;;;;;6.07;3.40;;;;;;;14.27;64.18;98519.50;4963397;28;123815;-81
2024/02/10 01:31:37;;;;;;;8.30;3.10;;;;;;;14.28;64.09;98520.31;4970393;28;113511;-80
2024/02/10 01:34:04;;;;;;;5.55;2.97;;;;;;;14.28;64.13;98515.00;4969437;28;113407;-81
2024/02/10 01:36:34;;;;;;;6.97;3.10;;;;;;;14.26;64.14;98517.84;4969163;28;124177;-81
2024/02/10 01:39:02;;;;;;;5.50;3.20;;;;;;;14.27;64.24;98516.00;4970089;28;122977;-81
2024/02/10 01:41:29;;;;;;;4.28;2.83;;;;;;;14.26;64.24;98517.84;4962662;28;114592;-81
2024/02/10 01:43:58;;;;;;;5.65;3.33;;;;;;;14.26;64.29;98514.31;4973785;28;113627;-81
2024/02/10 01:46:26;;;;;;;5.90;2.92;;;;;;;14.25;64.14;98510.00;4969646;28;124128;-81
2024/02/10 01:48:58;;;;;;;6.05;3.25;;;;;;;14.24;64.39;98513.63;4964021;28;124156;-81
2024/02/10 01:51:26;;;;;;;5.50;3.10;;;;;;;14.26;64.32;98511.66;4968977;28;115056;-81
2024/02/10 01:53:54;;;;;;;6.75;3.10;;;;;;;14.25;64.40;98520.63;4962893;28;115132;-81
2024/02/10 01:56:21;;;;;;;4.90;2.80;;;;;;;14.26;64.23;98511.66;4960613;28;124181;-81
2024/02/10 01:58:48;;;;;;;4.68;3.03;;;;;;;14.27;64.26;98518.66;4962706;28;123807;-81
2024/02/10 02:01:16;;;;;;;5.57;3.00;;;;;;;14.27;64.36;98518.66;4963882;28;117055;-81
2024/02/10 02:03:44;;;;;;;4.82;3.05;;;;;;;14.26;64.36;98512.50;4983879;28;115590;-81
2024/02/10 02:06:18;;;;;;;6.55;3.25;;;;;;;14.26;64.29;98522.28;4966138;28;124358;-81
2024/02/10 02:08:51;;;;;;;5.38;3.25;;;;;;;14.26;64.23;98522.28;4968250;28;123393;-82
2024/02/10 02:11:18;;;;;;;4.80;3.25;;;;;;;14.25;64.22;98520.63;4965258;28;113921;-82
2024/02/10 02:13:49;;;;;;;8.20;3.30;;;;;;;14.24;64.35;98518.94;4952804;28;115267;-81
2024/02/10 02:16:17;;;;;;;6.20;3.20;;;;;;;14.23;64.23;98522.63;4980046;28;123906;-81
2024/02/10 02:18:45;;;;;;;5.32;3.20;;;;;;;14.21;64.40;98520.09;4952687;28;123924;-82
2024/02/10 02:21:13;;;;;;;8.52;3.20;;;;;;;14.21;64.19;98520.94;4966647;28;113992;-81
2024/02/10 02:23:40;;;;;;;6.97;3.30;;;;;;;14.19;64.51;98511.44;4949511;28;113150;-81
2024/02/10 02:26:07;;;;;;;5.18;3.00;;;;;;;14.19;64.40;98517.56;4965840;28;123957;-81
2024/02/10 02:28:35;;;;;;;7.10;2.97;;;;;;;14.19;64.42;98511.44;4967018;28;122907;-81
2024/02/10 02:31:03;;;;;;;8.43;3.13;;;;;;;14.18;64.52;98504.41;4987917;28;114661;-81
2024/02/10 02:33:32;;;;;;;4.43;2.78;;;;;;;14.18;64.48;98515.91;4995415;28;114183;-81
2024/02/10 02:36:00;;;;;;;5.68;3.38;;;;;;;14.18;64.41;98515.91;4997613;28;123422;-81
2024/02/10 02:38:27;;;;;;;5.88;3.50;;;;;;;14.17;64.43;98519.56;4994477;28;123355;-81
2024/02/10 02:40:54;;;;;;;5.10;3.13;;;;;;;14.18;64.51;98515.91;4996469;28;113652;-82
2024/02/10 02:43:22;;;;;;;7.28;3.08;;;;;;;14.18;64.54;98510.59;4992622;28;113261;-81
2024/02/10 02:45:49;;;;;;;4.50;3.15;;;;;;;14.19;64.46;98506.09;5004241;28;123419;-81
2024/02/10 02:48:16;;;;;;;7.60;3.30;;;;;;;14.17;64.38;98492.94;4999429;28;124599;-81
2024/02/10 02:50:46;;;;;;;5.93;3.30;;;;;;;14.18;64.43;98504.41;4996710;28;116094;-81
2024/02/10 02:53:14;;;;;;;5.60;3.40;;;;;;;14.16;64.46;98496.56;5002262;28;115689;-81
2024/02/10 02:55:45;;;;;;;6.38;3.25;;;;;;;14.15;64.42;98500.22;4993876;28;123362;-81
2024/02/10 02:58:13;;;;;;;8.27;3.65;;;;;;;14.13;64.52;98496.88;4957946;28;123054;-81
2024/02/10 03:00:41;;;;;;;7.53;3.22;;;;;;;14.13;64.37;98499.56;4962897;28;113669;-81
2024/02/10 03:03:09;;;;;;;9.32;3.30;;;;;;;14.11;64.51;98488.22;4986895;28;113370;-81
2024/02/10 03:05:36;;;;;;;5.05;3.38;;;;;;;14.10;64.44;98496.34;4957788;28;124084;-81
2024/02/10 03:08:06;;;;;;;5.60;3.60;;;;;;;14.07;64.42;98497.50;4967910;28;124387;-81
2024/02/10 03:10:34;;;;;;;7.95;3.60;;;;;;;14.05;64.40;98488.78;4974956;28;115632;-81
2024/02/10 03:13:02;;;;;;;7.47;3.92;;;;;;;14.02;64.42;98483.78;4965633;28;113952;-81
2024/02/10 03:15:30;;;;;;;7.00;3.53;;;;;;;14.00;64.29;98485.75;4966485;28;123458;-81
2024/02/10 03:17:57;;;;;;;9.80;3.90;;;;;;;13.98;64.31;98482.41;4965759;28;124599;-81
2024/02/10 03:20:28;;;;;;;6.82;3.40;;;;;;;13.94;64.22;98491.69;4967536;28;114090;-81
2024/02/10 03:23:01;;;;;;;4.55;3.28;;;;;;;13.92;64.28;98493.63;4969689;28;112315;-81
2024/02/10 03:25:30;;;;;;;5.38;3.30;;;;;;;13.87;64.30;98485.28;4963271;28;124467;-81
2024/02/10 03:27:59;;;;;;;9.27;3.58;;;;;;;13.83;64.23;98490.88;4962655;28;124490;-81
2024/02/10 03:30:26;;;;;;;5.90;3.20;;;;;;;13.80;64.40;98487.69;4958557;28;113374;-81
2024/02/10 03:32:54;;;;;;;6.13;3.40;;;;;;;13.77;64.54;98491.50;4960183;28;113813;-81
2024/02/10 03:35:24;;;;;;;6.97;3.95;;;;;;;13.74;64.16;98494.44;4946229;28;123791;-81
2024/02/10 03:37:51;;;;;;;6.63;3.38;;;;;;;13.71;64.57;98486.75;4968237;28;124566;-81
2024/02/10 03:40:19;;;;;;;5.93;3.75;;;;;;;13.70;64.66;98489.56;4963047;28;114777;-82
2024/02/10 03:42:47;;;;;;;5.22;3.30;;;;;;;13.66;64.72;98489.00;4962683;28;114266;-81
2024/02/10 03:45:14;;;;;;;5.45;3.75;;;;;;;13.64;64.75;98493.66;4960263;28;123827;-82
2024/02/10 03:47:45;;;;;;;7.78;3.50;;;;;;;13.62;64.65;98493.78;4962052;28;123668;-81
2024/02/10 03:50:13;;;;;;;5.93;3.75;;;;;;;13.59;64.51;98477.28;4969308;28;114038;-82
2024/02/10 03:52:42;;;;;;;6.47;3.70;;;;;;;13.57;64.60;98492.56;4969237;28;113995;-81
2024/02/10 03:55:10;;;;;;;6.03;3.92;;;;;;;13.54;64.60;98490.19;4969918;28;123593;-81
2024/02/10 03:57:37;;;;;;;8.63;3.97;;;;;;;13.51;64.64;98493.16;4965604;28;123799;-81
2024/02/10 04:00:10;;;;;;;7.20;3.88;;;;;;;13.48;64.53;98490.75;4961067;28;114482;-81
2024/02/10 04:02:37;;;;;;;7.30;3.70;;;;;;;13.42;64.49;98485.03;4969694;28;113604;-81
2024/02/10 04:05:07;;;;;;;8.45;4.00;;;;;;;13.40;64.58;98486.19;4960016;28;123145;-81
2024/02/10 04:07:35;;;;;;;6.68;4.18;;;;;;;13.37;64.50;98479.34;4985295;28;126608;-81
2024/02/10 04:10:08;;;;;;;8.90;3.95;;;;;;;13.35;64.61;98480.44;4968162;28;113414;-81
2024/02/10 04:12:35;;;;;;;7.80;3.67;;;;;;;13.34;64.54;98479.63;4968836;28;112145;-81
2024/02/10 04:15:03;;;;;;;6.82;3.60;;;;;;;13.31;64.75;98487.88;4978933;28;124226;-81
2024/02/10 04:17:30;;;;;;;5.97;3.97;;;;;;;13.31;64.87;98490.53;4967901;28;123522;-81
2024/02/10 04:20:00;;;;;;;7.55;3.72;;;;;;;13.29;64.61;98481.84;4961976;28;112350;-81
2024/02/10 04:22:28;;;;;;;7.47;4.03;;;;;;;13.28;64.69;98485.50;4971838;28;114021;-81
2024/02/10 04:24:57;;;;;;;5.95;3.92;;;;;;;13.27;64.82;98486.47;4966545;28;122825;-81
2024/02/10 04:27:25;;;;;;;7.43;4.00;;;;;;;13.26;64.84;98492.78;4961227;28;124438;-81
2024/02/10 04:29:54;;;;;;;9.48;4.00;;;;;;;13.25;64.94;98497.22;4964405;28;115473;-81
2024/02/10 04:32:21;;;;;;;7.75;4.10;;;;;;;13.26;64.84;98482.16;4967107;28;114175;-81
2024/02/10 04:34:49;;;;;;;6.82;4.13;;;;;;;13.26;64.91;98492.78;4969703;28;123097;-81
2024/02/10 04:37:19;;;;;;;6.43;4.05;;;;;;;13.25;65.03;98501.72;4977330;28;125467;-81
2024/02/10 04:39:47;;;;;;;7.28;4.00;;;;;;;13.25;65.04;98494.56;4965150;28;113536;-81
2024/02/10 04:42:15;;;;;;;8.23;4.25;;;;;;;13.26;65.04;98506.06;4968897;28;113406;-81
2024/02/10 04:44:48;;;;;;;9.18;4.20;;;;;;;13.26;65.20;98503.41;4966568;28;123478;-82
2024/02/10 04:47:16;;;;;;;11.68;4.03;;;;;;;13.26;64.90;98508.72;4964484;28;122953;-81
2024/02/10 04:49:44;;;;;;;8.77;4.40;;;;;;;13.24;65.08;98502.69;4979579;28;114507;-81
2024/02/10 04:52:11;;;;;;;7.47;4.20;;;;;;;13.25;65.00;98505.22;4968694;28;113734;-81
2024/02/10 04:54:38;;;;;;;6.93;4.22;;;;;;;13.24;64.95;98500.03;4969448;28;124675;-81
2024/02/10 04:57:05;;;;;;;10.25;4.80;;;;;;;13.24;65.25;98505.34;4950676;28;123254;-81
2024/02/10 04:59:33;;;;;;;9.88;4.10;;;;;;;13.24;65.12;98500.03;4970468;28;114689;-81
2024/02/10 05:02:01;;;;;;;7.75;4.20;;;;;;;13.23;65.22;98503.69;4961406;28;113014;-81
2024/02/10 05:04:28;;;;;;;8.43;4.30;;;;;;;13.23;64.92;98509.00;4965754;28;123144;-81
2024/02/10 05:06:55;;;;;;;9.32;4.53;;;;;;;13.22;65.01;98513.50;4966671;28;123213;-81
2024/02/10 05:09:23;;;;;;;8.82;4.70;;;;;;;13.22;65.12;98507.31;4973653;28;113922;-81
2024/02/10 05:11:50;;;;;;;8.45;4.60;;;;;;;13.24;65.24;98508.00;4968258;28;112235;-81
2024/02/10 05:14:18;;;;;;;7.18;4.57;;;;;;;13.23;65.24;98506.34;4971280;28;124435;-81
2024/02/10 05:16:45;;;;;;;8.27;4.30;;;;;;;13.21;65.23;98510.97;4968618;28;124173;-81
2024/02/10 05:19:14;;;;;;;8.05;4.68;;;;;;;13.21;65.08;98505.66;4991120;28;115890;-81
2024/02/10 05:21:41;;;;;;;6.07;4.47;;;;;;;13.22;65.19;98496.69;4962734;28;113585;-82
2024/02/10 05:24:12;;;;;;;9.05;5.18;;;;;;;13.21;65.09;98506.47;4977425;28;123994;-81
2024/02/10 05:26:42;;;;;;;7.07;5.00;;;;;;;13.21;65.18;98510.97;4960638;28;123192;-81
2024/02/10 05:29:10;;;;;;;7.50;4.63;;;;;;;13.21;65.18;98513.63;4972871;28;114434;-81
2024/02/10 05:31:39;;;;;;;9.90;4.32;;;;;;;13.20;65.17;98509.28;4966632;28;112865;-81
2024/02/10 05:34:14;;;;;;;8.15;4.90;;;;;;;13.20;65.18;98519.91;4959639;28;124341;-81
2024/02/10 05:36:42;;;;;;;8.30;5.07;;;;;;;13.20;65.46;98526.09;4960289;28;124457;-81
2024/02/10 05:39:09;;;;;;;6.60;4.65;;;;;;;13.21;65.11;98521.59;4964431;28;114279;-81
2024/02/10 05:41:38;;;;;;;6.88;4.70;;;;;;;13.22;65.33;98528.56;4967637;28;113734;-81
2024/02/10 05:44:05;;;;;;;8.48;4.65;;;;;;;13.21;65.10;98526.91;4968401;28;123539;-81
2024/02/10 05:46:33;;;;;;;6.82;4.63;;;;;;;13.19;65.04;98523.56;4961338;28;122793;-81
2024/02/10 05:49:00;;;;;;;6.72;4.72;;;;;;;13.18;65.10;98525.38;4964631;28;114242;-81
2024/02/10 05:51:28;;;;;;;8.38;4.75;;;;;;;13.17;65.26;98530.84;4969500;28;113852;-81
2024/02/10 05:53:56;;;;;;;6.50;4.53;;;;;;;13.16;64.96;98523.84;4964166;28;123735;-81
2024/02/10 05:56:28;;;;;;;10.07;4.90;;;;;;;13.15;64.96;98527.50;4964635;28;122840;-81
2024/02/10 05:58:56;;;;;;;7.90;4.60;;;;;;;13.13;64.98;98534.75;4964710;28;114070;-81
2024/02/10 06:01:23;;;;;;;7.82;4.57;;;;;;;13.11;64.92;98539.38;4968732;28;113747;-81
2024/02/10 06:03:54;;;;;;;7.78;5.05;;;;;;;13.09;64.88;98536.00;4964863;28;123372;-81
2024/02/10 06:06:22;;;;;;;7.53;5.07;;;;;;;13.03;64.84;98532.97;4965613;28;124741;-81
2024/02/10 06:08:49;;;;;;;11.32;5.50;;;;;;;13.00;65.08;98535.91;4956111;28;115213;-81
2024/02/10 06:11:18;;;;;;;7.70;5.18;;;;;;;12.98;65.18;98537.84;4959250;28;114912;-81
2024/02/10 06:13:51;;;;;;;10.95;5.25;;;;;;;12.97;65.17;98536.16;4960346;28;123884;-81
2024/02/10 06:16:21;;;;;;;9.10;5.63;;;;;;;12.95;65.26;98538.13;4958499;28;124181;-81
2024/02/10 06:18:49;;;;;;;9.60;5.80;;;;;;;12.94;65.29;98536.47;4962339;28;113268;-81
2024/02/10 06:21:17;;;;;;;9.25;5.13;;;;;;;12.94;65.31;98551.56;4966455;28;113259;-81
2024/02/10 06:23:44;;;;;;;11.65;5.20;;;;;;;12.93;65.22;98550.72;4969021;28;123211;-81
2024/02/10 06:26:11;;;;;;;8.52;5.35;;;;;;;12.93;65.30;98558.69;4970931;28;123713;-81
2024/02/10 06:28:39;;;;;;;8.77;5.10;;;;;;;12.92;65.36;98543.75;4966965;28;113959;-81
2024/02/10 06:31:12;;;;;;;8.98;5.07;;;;;;;12.92;65.29;98554.38;4963430;28;113015;-81
2024/02/10 06:33:39;;;;;;;9.98;5.95;;;;;;;12.91;65.22;98568.63;4963722;28;123950;-81
2024/02/10 06:36:07;;;;;;;7.95;4.93;;;;;;;12.88;65.35;98563.56;4962846;28;123373;-81
2024/02/10 06:38:34;;;;;;;11.05;5.05;;;;;;;12.88;65.40;98568.88;4962099;28;114297;-80
2024/02/10 06:41:02;;;;;;;6.45;5.15;;;;;;;12.89;65.43;98570.59;4943215;28;112157;-82
2024/02/10 06:43:34;;;;;;;8.10;5.18;;;;;;;12.88;65.42;98576.84;4957440;28;123029;-81
2024/02/10 06:46:05;;;;;;;9.93;4.90;;;;;;;12.87;65.22;98588.47;4967747;28;124198;-81
2024/02/10 06:48:33;;;;;;;7.90;4.75;;;;;;;12.87;65.41;98582.34;4964942;28;113708;-81
2024/02/10 06:51:00;;;;;;;9.25;4.80;;;;;;;12.88;65.46;98589.31;4978361;28;113229;-81
2024/02/10 06:53:28;;;;;;;8.07;4.40;;;;;;;12.88;65.79;98584.84;4959479;28;123761;-81
2024/02/10 06:55:56;;;;;;;6.00;4.20;;;;;;;12.88;65.55;98584.84;4964147;28;124016;-81
2024/02/10 06:58:24;;;;;;;6.20;3.92;;;;;;;12.91;65.32;98581.91;4974958;28;113543;-81
2024/02/10 07:00:55;;;;;;;9.73;4.15;;;;;;;12.91;65.34;98589.88;4959669;28;113923;-81
2024/02/10 07:03:23;;;;;;;8.90;4.00;;;;;;;12.92;65.28;98594.22;4964197;28;124999;-81
2024/02/10 07:05:52;;;;;;;8.77;4.22;;;;;;;12.92;65.61;98591.56;4965347;28;123212;-81
2024/02/10 07:08:22;;;;;;;7.53;4.10;;;;;;;12.92;65.33;98601.34;4966825;28;113396;-81
2024/02/10 07:10:49;;;;;;;7.05;4.05;;;;;;;12.93;65.46;98603.03;4983102;28;114443;-81
2024/02/10 07:13:17;;;;;;;7.47;4.07;;;;;;;12.92;65.46;98602.19;4965790;28;123112;-81
2024/02/10 07:15:44;;;;;;;6.20;4.13;;;;;;;12.93;65.36;98590.56;4959694;28;123571;-81
2024/02/10 07:18:11;;;;;;;6.75;4.15;;;;;;;12.96;65.35;98598.28;4963236;28;113501;-81
2024/02/10 07:20:40;;;;;;;5.65;3.83;;;;;;;12.96;65.63;98603.59;4957188;28;114471;-81
2024/02/10 07:23:07;;;;;;;5.82;4.20;;;;;;;12.98;65.25;98600.81;4964508;28;123179;-81
2024/02/10 07:25:38;;;;;;;5.82;3.78;;;;;;;12.97;65.57;98605.25;4952467;28;123952;-81
2024/02/10 07:28:08;;;;;;;8.82;4.00;;;;;;;12.99;65.53;98607.78;4982787;28;114043;-81
2024/02/10 07:30:36;;;;;;;6.88;4.15;;;;;;;13.00;65.29;98604.97;4954444;28;113512;-81
2024/02/10 07:33:08;;;;;;;5.00;2.80;;;;;;;13.00;65.38;98610.31;4967033;28;123512;-81
2024/02/10 07:35:39;;;;;;;7.17;2.70;;;;;;;13.03;65.37;98607.38;4957415;28;122192;-81
2024/02/10 07:38:08;;;;;;;4.15;2.65;;;;;;;13.02;65.34;98618.97;4974612;28;114568;-81
2024/02/10 07:40:36;;;;;;;5.28;2.47;;;;;;;13.03;65.30;98612.69;4978330;28;113702;-81
2024/02/10 07:43:05;;;;;;;4.65;2.72;;;;;;;13.03;65.26;98620.66;4999298;28;124795;-81
2024/02/10 07:45:33;;;;;;;3.95;2.58;;;;;;;13.05;65.37;98617.84;4985831;28;125277;-80
2024/02/10 07:48:03;;;;;;;6.05;2.65;;;;;;;13.05;65.13;98623.16;4991513;28;115029;-81
2024/02/10 07:50:31;;;;;;;4.00;2.42;;;;;;;13.05;65.14;98624.00;4987609;28;114249;-81
2024/02/10 07:52:59;;;;;;;5.85;2.75;;;;;;;13.04;65.24;98627.63;4995981;28;123478;-81
2024/02/10 07:55:27;;;;;;;4.18;2.35;;;;;;;13.06;65.30;98630.16;4990822;28;123174;-81
2024/02/10 07:57:56;;;;;;;5.80;2.80;;;;;;;13.08;65.33;98632.69;4987458;28;113738;-82
2024/02/10 08:00:23;;;;;;;4.50;2.80;;;;;;;13.11;65.21;98637.69;4992034;28;113571;-81
2024/02/10 08:02:50;;;;;;;3.97;2.38;;;;;;;13.12;65.18;98634.06;4994084;28;125108;-81
2024/02/10 08:05:20;;;;;;;4.40;2.45;;;;;;;13.14;65.19;98632.13;4992422;28;123142;-81
2024/02/10 08:07:48;;;;;;;5.80;2.58;;;;;;;13.15;65.24;98634.63;4982416;28;114747;-82
2024/02/10 08:10:18;;;;;;;6.60;2.88;;;;;;;13.17;65.13;98638.00;4965419;28;113674;-81
2024/02/10 08:12:49;;;;;;;5.18;2.92;;;;;;;13.19;65.08;98635.19;4969985;28;123919;-81
2024/02/10 08:15:17;;;;;;;3.85;2.47;;;;;;;13.20;65.04;98637.72;4956264;28;124118;-81
2024/02/10 08:17:47;;;;;;;6.38;3.15;;;;;;;13.23;65.22;98631.28;4963975;28;114683;-81
2024/02/10 08:20:15;;;;;;;5.55;2.90;;;;;;;13.26;65.48;98636.31;4963653;28;114439;-81
2024/02/10 08:22:42;;;;;;;6.53;2.92;;;;;;;13.29;65.07;98638.69;4971931;28;124511;-81
2024/02/10 08:25:10;;;;;;;6.55;2.72;;;;;;;13.30;65.22;98640.41;4967061;28;124107;-81
2024/02/10 08:27:39;;;;;;;4.22;2.45;;;;;;;13.33;65.12;98636.63;4959611;28;115473;-81
2024/02/10 08:30:10;;;;;;;5.00;2.22;;;;;;;13.36;65.10;98641.66;4962678;28;113871;-81
2024/02/10 08:32:38;;;;;;;4.07;2.53;;;;;;;13.38;65.04;98639.69;4969825;28;122957;-81
2024/02/10 08:35:06;;;;;;;3.92;2.47;;;;;;;13.39;64.95;98636.91;4961111;28;124504;-81
2024/02/10 08:37:34;;;;;;;4.60;2.65;;;;;;;13.42;64.95;98643.75;4970943;28;114120;-81
2024/02/10 08:40:03;;;;;;;6.50;2.88;;;;;;;13.46;65.00;98646.97;4979426;28;114412;-81
2024/02/10 08:42:30;;;;;;;4.07;2.55;;;;;;;13.48;65.06;98650.31;4947769;28;122075;-81
2024/02/10 08:44:57;;;;;;;5.32;2.78;;;;;;;13.52;64.98;98646.38;4979926;28;123602;-81
2024/02/10 08:47:28;;;;;;;6.68;2.60;;;;;;;13.56;65.05;98648.63;4971776;28;113870;-81
2024/02/10 08:49:56;;;;;;;4.90;2.67;;;;;;;13.59;64.73;98647.50;4969807;28;112898;-81
2024/02/10 08:52:23;;;;;;;3.45;2.40;;;;;;;13.62;64.89;98639.25;4969376;28;123825;-81
2024/02/10 08:54:56;;;;;;;6.03;2.55;;;;;;;13.65;64.90;98652.25;4962806;28;123612;-81
2024/02/10 08:57:25;;;;;;;3.38;2.42;;;;;;;13.69;65.02;98643.00;4962359;28;114806;-81
2024/02/10 08:59:53;;;;;;;4.65;2.85;;;;;;;13.72;64.95;98653.34;4952189;28;113148;-81
2024/02/10 09:02:22;;;;;;;3.28;2.42;;;;;;;13.78;65.01;98652.78;4955025;28;123645;-81
2024/02/10 09:04:53;;;;;;;4.38;2.80;;;;;;;13.82;64.90;98650.66;4960550;28;124022;-81
2024/02/10 09:07:20;;;;;;;4.22;2.53;;;;;;;13.87;64.80;98655.56;4953416;28;116599;-81
2024/02/10 09:09:47;;;;;;;6.63;2.78;;;;;;;13.92;64.95;98658.63;4959885;28;113470;-81
2024/02/10 09:12:16;;;;;;;6.03;2.80;;;;;;;13.96;64.91;98657.38;4963813;28;123898;-81
2024/02/10 09:14:44;;;;;;;3.65;2.55;;;;;;;14.03;64.85;98661.09;4982937;28;124531;-81
2024/02/10 09:17:12;;;;;;;7.07;2.58;;;;;;;14.08;64.93;98663.34;4971149;28;114230;-81
2024/02/10 09:19:41;;;;;;;7.32;2.80;;;;;;;14.11;64.71;98669.22;4970071;28;113821;-81
2024/02/10 09:22:09;;;;;;;5.10;2.47;;;;;;;14.17;64.74;98670.47;4983184;28;124014;-81
2024/02/10 09:24:39;;;;;;;5.03;2.40;;;;;;;14.23;64.82;98666.38;4959528;28;123672;-81
2024/02/10 09:27:10;;;;;;;5.28;2.30;;;;;;;14.28;64.55;98658.78;4968875;28;115106;-81
2024/02/10 09:29:38;;;;;;;4.45;2.53;;;;;;;14.35;64.68;98670.53;4963895;28;114330;-81
2024/02/10 09:32:05;;;;;;;4.68;2.55;;;;;;;14.39;64.93;98655.91;4961640;28;124167;-81
2024/02/10 09:34:32;;;;;;;5.13;2.45;;;;;;;14.44;64.62;98659.00;4963571;28;124119;-81
2024/02/10 09:37:01;;;;;;;5.28;2.40;;;;;;;14.50;64.50;98662.88;4964116;28;96808;-82
2024/02/10 09:39:28;;;;;;;5.38;2.60;;;;;;;14.53;64.54;98658.09;4967623;28;114018;-81
2024/02/10 09:42:00;;;;;;;3.30;2.35;;;;;;;14.58;64.41;98660.38;4967584;28;124184;-81
2024/02/10 09:44:33;;;;;;;3.70;2.38;;;;;;;14.64;64.37;98664.25;4964848;28;122941;-81
2024/02/10 09:47:01;;;;;;;3.20;2.20;;;;;;;14.70;64.32;98669.00;4969805;28;115121;-81
2024/02/10 09:49:29;;;;;;;3.83;2.30;;;;;;;14.72;64.30;98667.00;4952539;28;113535;-81
2024/02/10 09:51:58;;;;;;;3.45;2.30;;;;;;;14.75;64.13;98672.88;4958524;28;124088;-82
2024/02/10 09:54:26;;;;;;;3.63;2.28;;;;;;;14.78;64.25;98677.06;4966039;28;124098;-82
2024/02/10 09:56:56;;;;;;;3.17;2.08;;;;;;;14.83;64.03;98664.13;4991583;28;113188;-81
2024/02/10 09:59:24;;;;;;;6.50;2.30;;;;;;;14.87;64.10;98665.50;4966831;28;113398;-81
2024/02/10 10:01:54;;;;;;;3.00;2.00;;;;;;;14.90;63.99;98670.56;4963865;28;124208;-81
2024/02/10 10:04:22;;;;;;;4.50;2.17;;;;;;;14.92;63.86;98668.56;4961334;28;124383;-81
2024/02/10 10:06:49;;;;;;;4.00;2.20;;;;;;;14.92;64.05;98671.25;4963996;28;114237;-81
2024/02/10 10:09:21;;;;;;;4.15;2.35;;;;;;;14.96;63.91;98677.94;4959965;28;113837;-81
2024/02/10 10:11:49;;;;;;;4.05;2.20;;;;;;;15.02;63.74;98678.34;4966317;28;124018;-81
2024/02/10 10:14:19;;;;;;;4.03;2.45;;;;;;;15.04;63.60;98676.34;4964917;28;125037;-81
2024/02/10 10:16:58;;;;;;;5.70;2.60;;;;;;;15.07;63.55;98676.03;4958222;28;114697;-81
2024/02/10 10:19:27;;;;;;;4.32;2.17;;;;;;;15.11;63.77;98677.44;4975006;28;115575;-81
2024/02/10 10:21:56;;;;;;;3.28;2.13;;;;;;;15.14;63.61;98682.44;4960914;28;124368;-81
2024/02/10 10:24:27;;;;;;;4.40;1.92;;;;;;;15.17;63.52;98682.16;4966655;28;124219;-81
2024/02/10 10:26:59;;;;;;;5.07;2.33;;;;;;;15.21;63.67;98683.50;4962575;28;114038;-81
2024/02/10 10:29:28;;;;;;;4.00;1.90;;;;;;;15.25;63.59;98684.88;4963766;28;114252;-82
2024/02/10 10:31:59;;;;;;;4.70;2.17;;;;;;;15.28;63.52;98684.59;4967347;28;123208;-81
2024/02/10 10:34:31;;;;;;;3.33;1.70;;;;;;;15.30;63.26;98679.94;4966258;28;123708;-81
2024/02/10 10:37:01;;;;;;;3.50;1.90;;;;;;;15.32;63.38;98685.94;4966393;28;113896;-81
2024/02/10 10:39:36;;;;;;;3.65;1.75;;;;;;;15.36;63.31;98687.31;4962586;28;114303;-81
2024/02/10 10:42:04;;;;;;;2.85;1.85;;;;;;;15.38;63.16;98681.84;4965356;28;123081;-81
2024/02/10 10:44:32;;;;;;;3.78;2.20;;;;;;;15.41;63.04;98678.00;4970401;28;123123;-81
2024/02/10 10:47:00;;;;;;;4.40;1.85;;;;;;;15.42;63.02;98663.69;4959866;28;112430;-81
2024/02/10 10:49:27;;;;;;;7.28;2.22;;;;;;;15.42;62.87;98669.03;4955659;28;114665;-82
2024/02/10 10:52:03;;;;;;;3.75;1.92;;;;;;;15.44;62.92;98673.22;4957323;28;123993;-81
2024/02/10 10:54:37;;;;;;;3.90;2.33;;;;;;;15.49;62.95;98664.75;4960473;28;123644;-82
2024/02/10 10:57:19;;;;;;;3.65;2.50;;;;;;;15.53;62.97;98666.13;4971203;28;114827;-81
2024/02/10 11:00:11;;;;;;;4.45;2.10;;;;;;;15.55;62.86;98664.13;4986992;28;113970;-81
2024/02/10 11:02:44;;;;;;;2.97;2.25;;;;;;;15.57;62.94;98667.47;4965188;28;123342;-81
2024/02/10 11:05:13;;;;;;;4.70;2.05;;;;;;;15.60;63.03;98667.19;4967288;28;123053;-81
2024/02/10 11:07:45;;;;;;;3.47;2.03;;;;;;;15.65;62.91;98675.56;4955427;28;115468;-81
2024/02/10 11:10:12;;;;;;;5.15;3.08;;;;;;;15.68;62.92;98669.91;4947670;28;113657;-81
2024/02/10 11:12:43;;;;;;;5.18;2.88;;;;;;;15.71;62.51;98658.94;4950753;28;122973;-81
2024/02/10 11:15:20;;;;;;;7.53;3.25;;;;;;;15.73;62.84;98656.97;4963780;28;124486;-80
2024/02/10 11:18:03;;;;;;;4.78;2.90;;;;;;;15.77;62.73;98657.50;4965118;28;114798;-81
2024/02/10 11:20:40;;;;;;;5.10;3.33;;;;;;;15.80;62.93;98657.16;4960886;28;113984;-80
2024/02/10 11:23:11;;;;;;;4.60;3.15;;;;;;;15.85;62.44;98649.53;4978798;28;123510;-81
2024/02/10 11:25:39;;;;;;;5.53;3.50;;;;;;;15.90;62.71;98646.41;4961601;28;123612;-80
2024/02/10 11:28:07;;;;;;;5.07;3.28;;;;;;;15.94;62.64;98647.78;4960873;28;113753;-80
2024/02/10 11:30:35;;;;;;;5.80;3.30;;;;;;;16.01;62.60;98642.63;4964158;28;114223;-80
2024/02/10 11:33:03;;;;;;;5.15;3.00;;;;;;;16.05;62.61;98644.81;4959562;28;123925;-81